createdAt,value
2022-08-26T00:01:28.975Z,14.40
2022-08-26T00:04:04.180Z,19.50
2022-08-26T00:06:37.444Z,14.40
2022-08-26T00:09:10.947Z,15.70
2022-08-26T00:11:44.748Z,18.00
2022-08-26T00:14:19.918Z,17.30
2022-08-26T00:16:53.638Z,17.00
2022-08-26T00:19:28.354Z,15.50
2022-08-26T00:22:01.185Z,14.80
2022-08-26T00:24:35.412Z,14.30
2022-08-26T00:27:08.964Z,17.80
2022-08-26T00:29:43.876Z,16.90
2022-08-26T00:32:18.556Z,15.80
2022-08-26T00:34:52.069Z,20.50
2022-08-26T00:37:25.781Z,12.90
2022-08-26T00:39:59.227Z,18.30
2022-08-26T00:42:34.510Z,15.60
2022-08-26T00:45:10.227Z,16.80
2022-08-26T00:47:54.000Z,16.30
2022-08-26T00:50:31.501Z,15.30
2022-08-26T00:53:27.975Z,14.70
2022-08-26T00:56:20.771Z,20.50
2022-08-26T00:58:56.236Z,15.80
2022-08-26T01:01:30.974Z,16.60
2022-08-26T01:04:06.234Z,14.90
2022-08-26T01:06:40.176Z,14.60
2022-08-26T01:09:18.539Z,15.20
2022-08-26T01:11:55.651Z,17.40
2022-08-26T01:14:35.044Z,13.80
2022-08-26T01:17:12.300Z,15.60
2022-08-26T01:19:51.916Z,11.90
2022-08-26T01:22:35.760Z,15.60
2022-08-26T01:25:10.479Z,16.20
2022-08-26T01:27:44.029Z,13.30
2022-08-26T01:30:19.809Z,16.50
2022-08-26T01:32:53.919Z,16.90
2022-08-26T01:35:27.443Z,14.10
2022-08-26T01:38:02.665Z,14.50
2022-08-26T01:40:40.554Z,14.10
2022-08-26T01:43:22.508Z,14.40
2022-08-26T01:45:57.574Z,15.90
2022-08-26T01:48:33.526Z,10.80
2022-08-26T01:51:11.312Z,16.60
2022-08-26T01:53:46.343Z,15.20
2022-08-26T01:56:20.463Z,15.10
2022-08-26T01:59:03.308Z,18.70
2022-08-26T02:01:39.110Z,12.60
2022-08-26T02:04:42.169Z,14.70
2022-08-26T02:07:16.909Z,15.60
2022-08-26T02:09:52.717Z,16.30
2022-08-26T02:12:27.624Z,18.50
2022-08-26T02:15:05.833Z,18.70
2022-08-26T02:17:47.127Z,16.60
2022-08-26T02:20:23.246Z,14.60
2022-08-26T02:22:56.875Z,16.00
2022-08-26T02:25:45.365Z,13.80
2022-08-26T02:28:19.826Z,17.80
2022-08-26T02:30:55.516Z,14.00
2022-08-26T02:33:31.824Z,16.50
2022-08-26T02:36:06.354Z,13.00
2022-08-26T02:38:41.101Z,17.80
2022-08-26T02:41:15.386Z,12.30
2022-08-26T02:43:51.490Z,18.00
2022-08-26T02:46:29.849Z,14.70
2022-08-26T02:49:05.851Z,19.60
2022-08-26T02:51:40.927Z,16.70
2022-08-26T02:54:17.139Z,17.30
2022-08-26T02:56:51.990Z,19.80
2022-08-26T02:59:26.292Z,16.70
2022-08-26T03:02:02.281Z,14.00
2022-08-26T03:04:36.864Z,13.30
2022-08-26T03:07:12.359Z,15.50
2022-08-26T03:09:46.616Z,14.50
2022-08-26T03:12:21.144Z,17.40
2022-08-26T03:14:54.902Z,17.10
2022-08-26T03:17:29.241Z,15.90
2022-08-26T03:20:03.981Z,15.30
2022-08-26T03:22:37.974Z,18.10
2022-08-26T03:25:12.704Z,20.50
2022-08-26T03:27:47.849Z,16.50
2022-08-26T03:30:44.677Z,17.60
2022-08-26T03:33:18.241Z,15.70
2022-08-26T03:35:52.900Z,22.30
2022-08-26T03:38:26.965Z,18.60
2022-08-26T03:41:01.467Z,13.50
2022-08-26T03:43:34.844Z,16.70
2022-08-26T03:46:10.393Z,25.00
2022-08-26T03:48:45.080Z,16.70
2022-08-26T03:51:21.317Z,17.50
2022-08-26T03:53:54.809Z,22.30
2022-08-26T03:56:28.204Z,19.00
2022-08-26T03:59:04.061Z,16.10
2022-08-26T04:01:38.476Z,15.80
2022-08-26T04:04:15.545Z,17.20
2022-08-26T04:06:49.652Z,13.10
2022-08-26T04:09:24.228Z,14.70
2022-08-26T04:11:59.346Z,17.80
2022-08-26T04:14:32.994Z,15.80
2022-08-26T04:17:06.560Z,18.60
2022-08-26T04:19:41.631Z,17.60
2022-08-26T04:22:15.391Z,23.20
2022-08-26T04:24:59.214Z,13.70
2022-08-26T04:27:32.199Z,17.70
2022-08-26T04:30:06.323Z,13.60
2022-08-26T04:32:42.270Z,17.20
2022-08-26T04:35:15.789Z,15.30
2022-08-26T04:37:51.091Z,13.60
2022-08-26T04:40:25.159Z,16.40
2022-08-26T04:43:00.643Z,17.90
2022-08-26T04:45:34.056Z,18.80
2022-08-26T04:48:07.894Z,16.70
2022-08-26T04:50:44.160Z,18.40
2022-08-26T04:53:23.807Z,17.80
2022-08-26T04:55:57.848Z,15.80
2022-08-26T04:58:31.043Z,19.50
2022-08-26T05:01:05.672Z,17.60
2022-08-26T05:03:39.666Z,20.50
2022-08-26T05:06:16.486Z,20.10
2022-08-26T05:08:53.022Z,13.40
2022-08-26T05:11:26.874Z,20.20
2022-08-26T05:14:02.293Z,16.10
2022-08-26T05:16:35.486Z,18.70
2022-08-26T05:19:09.679Z,17.50
2022-08-26T05:21:44.848Z,19.70
2022-08-26T05:24:21.393Z,16.20
2022-08-26T05:26:55.118Z,15.10
2022-08-26T05:29:30.739Z,15.80
2022-08-26T05:32:05.096Z,18.10
2022-08-26T05:34:38.762Z,14.50
2022-08-26T05:37:13.608Z,15.60
2022-08-26T05:39:51.290Z,18.30
2022-08-26T05:42:27.176Z,14.20
2022-08-26T05:45:01.652Z,15.30
2022-08-26T05:47:38.161Z,18.60
2022-08-26T05:50:13.189Z,19.50
2022-08-26T05:52:47.710Z,14.10
2022-08-26T05:55:22.049Z,18.50
2022-08-26T05:57:55.791Z,16.20
2022-08-26T06:00:29.357Z,16.90
2022-08-26T06:03:03.081Z,19.30
2022-08-26T06:05:45.649Z,13.70
2022-08-26T06:08:22.127Z,14.50
2022-08-26T06:10:58.396Z,13.70
2022-08-26T06:13:32.693Z,16.30
2022-08-26T06:16:14.852Z,12.80
2022-08-26T06:18:49.936Z,20.50
2022-08-26T06:21:28.045Z,18.70
2022-08-26T06:24:27.049Z,17.20
2022-08-26T06:27:11.359Z,15.90
2022-08-26T06:29:45.276Z,14.90
2022-08-26T06:32:19.083Z,13.20
2022-08-26T06:34:54.690Z,15.80
2022-08-26T06:37:28.643Z,18.80
2022-08-26T06:40:03.658Z,16.90
2022-08-26T06:42:38.749Z,14.80
2022-08-26T06:45:13.696Z,13.60
2022-08-26T06:47:47.458Z,17.70
2022-08-26T06:50:23.086Z,15.40
2022-08-26T06:52:57.154Z,15.70
2022-08-26T06:55:34.864Z,12.50
2022-08-26T06:58:10.023Z,12.70
2022-08-26T07:00:47.341Z,12.80
2022-08-26T07:03:22.614Z,16.00
2022-08-26T07:06:02.890Z,17.10
2022-08-26T07:08:36.739Z,15.80
2022-08-26T07:11:12.035Z,16.70
2022-08-26T07:13:47.384Z,15.10
2022-08-26T07:16:22.752Z,14.00
2022-08-26T07:18:59.060Z,13.50
2022-08-26T07:21:34.591Z,11.90
2022-08-26T07:24:08.747Z,13.60
2022-08-26T07:26:44.746Z,15.60
2022-08-26T07:29:19.148Z,15.30
2022-08-26T07:31:52.681Z,20.60
2022-08-26T07:34:26.402Z,25.50
2022-08-26T07:37:00.691Z,19.90
2022-08-26T07:39:35.042Z,11.60
2022-08-26T07:42:10.305Z,14.90
2022-08-26T07:44:45.070Z,14.50
2022-08-26T07:47:24.932Z,14.70
2022-08-26T07:50:01.176Z,18.20
2022-08-26T07:52:35.257Z,14.90
2022-08-26T07:55:10.165Z,19.10
2022-08-26T07:57:43.373Z,15.70
2022-08-26T08:00:18.471Z,13.80
2022-08-26T08:02:52.576Z,17.00
2022-08-26T08:05:33.732Z,17.60
2022-08-26T08:08:26.988Z,14.30
2022-08-26T08:11:04.831Z,15.30
2022-08-26T08:13:40.202Z,17.50
2022-08-26T08:16:13.790Z,15.80
2022-08-26T08:18:47.785Z,17.70
2022-08-26T08:21:23.989Z,16.70
2022-08-26T08:23:59.396Z,18.10
2022-08-26T08:26:32.444Z,21.40
2022-08-26T08:29:06.158Z,10.70
2022-08-26T08:31:56.535Z,16.20
2022-08-26T08:34:34.322Z,19.50
2022-08-26T08:37:11.564Z,12.50
2022-08-26T08:39:45.239Z,17.50
2022-08-26T08:42:41.733Z,21.10
2022-08-26T08:45:37.041Z,17.60
2022-08-26T08:48:27.921Z,19.30
2022-08-26T08:51:29.211Z,14.30
2022-08-26T08:54:03.752Z,14.10
2022-08-26T08:56:55.880Z,15.60
2022-08-26T08:59:42.432Z,16.10
2022-08-26T09:02:18.544Z,19.30
2022-08-26T09:05:08.668Z,12.20
2022-08-26T09:08:11.191Z,17.70
2022-08-26T09:10:51.417Z,22.90
2022-08-26T09:13:27.346Z,17.80
2022-08-26T09:16:04.755Z,18.70
2022-08-26T09:18:40.442Z,16.80
2022-08-26T09:21:17.918Z,19.40
2022-08-26T09:23:56.805Z,19.50
2022-08-26T09:26:49.897Z,15.40
2022-08-26T09:29:30.842Z,17.00
2022-08-26T09:32:22.658Z,20.40
2022-08-26T09:35:06.869Z,18.80
2022-08-26T09:40:39.188Z,17.60
2022-08-26T09:43:23.185Z,20.20
2022-08-26T09:46:13.123Z,25.10
2022-08-26T09:48:46.469Z,15.80
2022-08-26T09:51:25.207Z,26.20
2022-08-26T09:54:01.322Z,26.40
2022-08-26T09:56:37.593Z,23.50
2022-08-26T09:59:13.923Z,19.50
2022-08-26T10:01:48.077Z,25.70
2022-08-26T10:04:27.439Z,19.30
2022-08-26T10:07:09.474Z,26.90
2022-08-26T10:09:46.000Z,23.60
2022-08-26T10:12:23.905Z,23.20
2022-08-26T10:15:02.508Z,19.40
2022-08-26T10:17:51.969Z,24.90
2022-08-26T10:20:38.182Z,18.80
2022-08-26T10:23:23.324Z,24.60
2022-08-26T10:26:06.964Z,24.30
2022-08-26T10:28:45.993Z,18.50
2022-08-26T10:31:38.098Z,23.70
2022-08-26T10:34:15.194Z,24.90
2022-08-26T10:37:16.216Z,27.80
2022-08-26T10:40:06.305Z,31.90
2022-08-26T10:42:53.905Z,24.00
2022-08-26T10:45:31.236Z,19.30
2022-08-26T10:48:14.882Z,32.30
2022-08-26T10:53:56.379Z,29.40
2022-08-26T10:56:30.819Z,35.00
2022-08-26T10:59:29.403Z,25.40
2022-08-26T11:02:36.817Z,31.60
2022-08-26T11:05:23.209Z,23.80
2022-08-26T11:08:16.445Z,28.70
2022-08-26T11:11:00.073Z,18.80
2022-08-26T11:14:01.739Z,36.50
2022-08-26T11:16:43.825Z,33.10
2022-08-26T11:20:01.928Z,48.90
2022-08-26T11:22:47.469Z,43.50
2022-08-26T11:25:30.208Z,35.20
2022-08-26T11:28:06.358Z,52.50
2022-08-26T11:30:44.802Z,41.20
2022-08-26T11:33:46.733Z,51.70
2022-08-26T11:36:36.932Z,34.90
2022-08-26T11:39:24.799Z,33.10
2022-08-26T11:42:05.212Z,51.80
2022-08-26T11:44:49.095Z,50.00
2022-08-26T11:47:31.605Z,47.00
2022-08-26T11:50:26.821Z,52.70
2022-08-26T11:53:07.674Z,49.80
2022-08-26T11:55:47.302Z,50.30
2022-08-26T11:58:22.630Z,44.40
2022-08-26T12:01:11.596Z,47.00
2022-08-26T12:03:53.694Z,44.10
2022-08-26T12:06:30.506Z,38.10
2022-08-26T12:09:07.790Z,52.00
2022-08-26T12:11:42.099Z,49.60
2022-08-26T12:14:27.669Z,48.90
2022-08-26T12:17:17.187Z,50.40
2022-08-26T12:19:53.615Z,55.10
2022-08-26T12:22:39.912Z,38.10
2022-08-26T12:25:27.132Z,53.20
2022-08-26T12:28:10.436Z,46.00
2022-08-26T12:31:08.924Z,43.00
2022-08-26T12:33:43.008Z,37.40
2022-08-26T12:36:21.757Z,53.00
2022-08-26T12:38:58.313Z,72.50
2022-08-26T12:42:24.028Z,61.30
2022-08-26T12:45:04.950Z,71.90
2022-08-26T12:47:46.133Z,63.60
2022-08-26T12:50:25.874Z,66.70
2022-08-26T12:53:18.760Z,59.80
2022-08-26T12:56:04.340Z,70.60
2022-08-26T12:58:39.787Z,73.60
2022-08-26T13:01:12.551Z,65.00
2022-08-26T13:03:48.068Z,74.30
2022-08-26T13:06:24.127Z,89.30
2022-08-26T13:08:59.957Z,71.80
2022-08-26T13:11:43.261Z,67.80
2022-08-26T13:14:23.721Z,46.20
2022-08-26T13:19:30.141Z,86.20
2022-08-26T13:22:05.729Z,83.70
2022-08-26T13:24:46.429Z,93.40
2022-08-26T13:27:23.978Z,56.90
2022-08-26T13:29:58.840Z,93.70
2022-08-26T13:32:33.602Z,76.00
2022-08-26T13:35:07.323Z,91.30
2022-08-26T13:37:40.778Z,67.50
2022-08-26T13:40:15.418Z,75.50
2022-08-26T13:42:49.981Z,97.30
2022-08-26T13:45:23.722Z,75.60
2022-08-26T13:47:56.951Z,89.40
2022-08-26T13:50:30.270Z,100.20
2022-08-26T13:53:03.620Z,94.50
2022-08-26T13:55:36.466Z,92.60
2022-08-26T13:58:10.268Z,90.10
2022-08-26T14:00:46.022Z,96.90
2022-08-26T14:03:20.782Z,76.40
2022-08-26T14:05:55.870Z,92.10
2022-08-26T14:08:30.219Z,86.90
2022-08-26T14:11:03.908Z,79.90
2022-08-26T14:13:38.162Z,66.20
2022-08-26T14:16:16.838Z,82.00
2022-08-26T14:18:51.150Z,68.70
2022-08-26T14:21:25.903Z,85.70
2022-08-26T14:24:01.023Z,77.80
2022-08-26T14:26:35.423Z,90.90
2022-08-26T14:29:10.592Z,79.70
2022-08-26T14:31:46.153Z,88.50
2022-08-26T14:34:19.719Z,94.20
2022-08-26T14:36:53.060Z,78.10
2022-08-26T14:39:26.936Z,90.50
2022-08-26T14:42:01.162Z,86.50
2022-08-26T14:44:35.785Z,79.60
2022-08-26T14:47:09.670Z,76.40
2022-08-26T14:49:42.580Z,83.60
2022-08-26T14:52:15.712Z,78.20
2022-08-26T14:54:54.889Z,72.50
2022-08-26T14:57:29.877Z,82.90
2022-08-26T15:00:02.691Z,78.90
2022-08-26T15:02:35.526Z,111.70
2022-08-26T15:05:09.176Z,82.80
2022-08-26T15:07:42.662Z,77.50
2022-08-26T15:10:18.871Z,80.80
2022-08-26T15:12:52.614Z,79.50
2022-08-26T15:15:26.544Z,71.80
2022-08-26T15:18:00.021Z,86.90
2022-08-26T15:23:12.752Z,87.60
2022-08-26T15:25:48.813Z,83.20
2022-08-26T15:28:22.644Z,89.30
2022-08-26T15:30:57.430Z,71.00
2022-08-26T15:33:31.448Z,71.80
2022-08-26T15:36:05.876Z,80.50
2022-08-26T15:38:43.904Z,78.30
2022-08-26T15:41:18.185Z,75.40
2022-08-26T15:43:52.483Z,99.30
2022-08-26T15:46:27.165Z,76.90
2022-08-26T15:49:00.229Z,85.50
2022-08-26T15:51:45.341Z,67.70
2022-08-26T15:54:23.046Z,89.50
2022-08-26T15:56:56.448Z,85.30
2022-08-26T15:59:32.282Z,73.90
2022-08-26T16:02:06.033Z,87.40
2022-08-26T16:04:39.240Z,81.10
2022-08-26T16:07:12.954Z,82.20
2022-08-26T16:09:46.234Z,72.20
2022-08-26T16:12:28.476Z,76.90
2022-08-26T16:15:01.775Z,78.80
2022-08-26T16:17:35.068Z,78.80
2022-08-26T16:20:08.741Z,83.90
2022-08-26T16:22:41.627Z,88.00
2022-08-26T16:25:14.694Z,89.80
2022-08-26T16:27:47.534Z,87.40
2022-08-26T16:30:22.270Z,79.00
2022-08-26T16:32:57.913Z,73.80
2022-08-26T16:35:31.150Z,80.30
2022-08-26T16:38:03.918Z,83.80
2022-08-26T16:40:38.179Z,74.80
2022-08-26T16:43:11.098Z,62.00
2022-08-26T16:45:50.591Z,74.90
2022-08-26T16:48:24.220Z,60.80
2022-08-26T16:50:57.624Z,72.50
2022-08-26T16:53:30.967Z,70.70
2022-08-26T16:56:05.439Z,85.30
2022-08-26T16:58:39.734Z,69.40
2022-08-26T17:01:13.290Z,91.70
2022-08-26T17:03:46.535Z,79.40
2022-08-26T17:06:20.077Z,79.70
2022-08-26T17:08:53.748Z,73.10
2022-08-26T17:11:26.814Z,85.00
2022-08-26T17:13:59.688Z,77.00
2022-08-26T17:16:32.815Z,71.40
2022-08-26T17:19:06.950Z,80.60
2022-08-26T17:21:41.148Z,81.50
2022-08-26T17:24:14.395Z,79.90
2022-08-26T17:26:53.427Z,90.00
2022-08-26T17:29:31.255Z,85.20
2022-08-26T17:32:05.890Z,84.50
2022-08-26T17:34:39.739Z,74.60
2022-08-26T17:37:12.860Z,84.10
2022-08-26T17:39:45.971Z,66.10
2022-08-26T17:42:19.491Z,89.60
2022-08-26T17:44:53.021Z,78.40
2022-08-26T17:47:25.949Z,72.80
2022-08-26T17:49:59.250Z,76.60
2022-08-26T17:52:32.685Z,75.20
2022-08-26T17:55:06.340Z,72.30
2022-08-26T17:57:40.621Z,74.80
2022-08-26T18:00:20.407Z,66.50
2022-08-26T18:02:53.621Z,72.70
2022-08-26T18:05:28.027Z,81.20
2022-08-26T18:08:03.880Z,71.60
2022-08-26T18:10:38.577Z,74.30
2022-08-26T18:13:12.921Z,67.30
2022-08-26T18:15:49.348Z,78.90
2022-08-26T18:18:23.512Z,84.40
2022-08-26T18:21:01.628Z,60.10
2022-08-26T18:23:36.240Z,76.50
2022-08-26T18:26:11.393Z,69.70
2022-08-26T18:28:46.603Z,76.10
2022-08-26T18:31:20.074Z,68.70
2022-08-26T18:33:53.634Z,76.00
2022-08-26T18:36:32.149Z,74.40
2022-08-26T18:39:06.386Z,62.80
2022-08-26T18:41:45.451Z,71.60
2022-08-26T18:44:21.932Z,73.40
2022-08-26T18:46:56.035Z,69.10
2022-08-26T18:49:29.782Z,72.90
2022-08-26T18:52:02.875Z,68.80
2022-08-26T18:54:36.147Z,59.80
2022-08-26T18:57:09.174Z,65.90
2022-08-26T18:59:42.417Z,80.60
2022-08-26T19:02:16.097Z,63.90
2022-08-26T19:04:49.590Z,72.50
2022-08-26T19:07:23.956Z,55.30
2022-08-26T19:09:56.820Z,73.80
2022-08-26T19:12:30.196Z,69.50
2022-08-26T19:15:07.390Z,56.90
2022-08-26T19:17:40.763Z,62.30
2022-08-26T19:20:14.331Z,56.60
2022-08-26T19:22:47.786Z,73.30
2022-08-26T19:25:21.249Z,75.10
2022-08-26T19:27:54.494Z,61.80
2022-08-26T19:30:28.483Z,63.90
2022-08-26T19:33:05.971Z,66.70
2022-08-26T19:35:41.302Z,71.30
2022-08-26T19:38:15.960Z,82.00
2022-08-26T19:40:49.574Z,74.40
2022-08-26T19:43:23.309Z,70.60
2022-08-26T19:45:57.948Z,56.80
2022-08-26T19:48:32.435Z,64.30
2022-08-26T19:51:07.076Z,71.60
2022-08-26T19:53:41.402Z,61.30
2022-08-26T19:56:16.046Z,60.20
2022-08-26T19:58:49.446Z,63.90
2022-08-26T20:01:23.824Z,58.80
2022-08-26T20:03:57.781Z,61.30
2022-08-26T20:06:31.597Z,58.50
2022-08-26T20:09:05.423Z,49.40
2022-08-26T20:11:39.759Z,54.20
2022-08-26T20:14:13.807Z,57.90
2022-08-26T20:16:48.290Z,59.40
2022-08-26T20:19:40.624Z,68.70
2022-08-26T20:22:14.921Z,62.20
2022-08-26T20:24:50.125Z,67.90
2022-08-26T20:27:37.852Z,68.20
2022-08-26T20:30:14.188Z,59.00
2022-08-26T20:32:49.007Z,68.00
2022-08-26T20:35:24.464Z,69.60
2022-08-26T20:37:58.696Z,81.30
2022-08-26T20:40:34.039Z,60.70
2022-08-26T20:43:08.069Z,60.40
2022-08-26T20:45:42.286Z,55.10
2022-08-26T20:48:15.954Z,61.30
2022-08-26T20:50:49.425Z,68.90
2022-08-26T20:53:22.754Z,67.30
2022-08-26T20:56:04.315Z,63.20
2022-08-26T20:58:38.469Z,68.10
2022-08-26T21:01:18.806Z,60.10
2022-08-26T21:03:55.332Z,62.10
2022-08-26T21:06:28.751Z,67.50
2022-08-26T21:09:03.461Z,71.20
2022-08-26T21:11:39.373Z,66.40
2022-08-26T21:14:16.687Z,68.70
2022-08-26T21:16:51.447Z,54.50
2022-08-26T21:19:25.120Z,67.10
2022-08-26T21:22:00.262Z,62.30
2022-08-26T21:24:33.928Z,64.60
2022-08-26T21:27:07.410Z,56.70
2022-08-26T21:29:40.700Z,54.40
2022-08-26T21:32:15.762Z,57.30
2022-08-26T21:34:49.131Z,53.20
2022-08-26T21:37:22.209Z,61.60
2022-08-26T21:39:58.957Z,47.80
2022-08-26T21:42:34.966Z,54.00
2022-08-26T21:45:09.341Z,55.00
2022-08-26T21:47:42.887Z,62.90
2022-08-26T21:50:16.222Z,46.30
2022-08-26T21:52:49.739Z,50.40
2022-08-26T21:55:23.472Z,60.30
2022-08-26T21:57:56.742Z,55.40
2022-08-26T22:00:29.824Z,55.40
2022-08-26T22:03:03.014Z,69.70
2022-08-26T22:05:36.154Z,74.40
2022-08-26T22:08:09.156Z,72.00
2022-08-26T22:10:45.597Z,57.70
2022-08-26T22:13:19.390Z,50.30
2022-08-26T22:15:52.863Z,53.60
2022-08-26T22:18:30.037Z,67.90
2022-08-26T22:21:06.119Z,62.00
2022-08-26T22:23:41.001Z,54.00
2022-08-26T22:26:15.719Z,56.60
2022-08-26T22:29:02.890Z,56.70
2022-08-26T22:31:38.727Z,59.70
2022-08-26T22:34:16.170Z,63.20
2022-08-26T22:36:50.704Z,69.40
2022-08-26T22:39:27.183Z,64.30
2022-08-26T22:42:00.888Z,44.80
2022-08-26T22:44:37.618Z,58.10
2022-08-26T22:47:11.383Z,60.70
2022-08-26T22:49:47.227Z,71.70
2022-08-26T22:52:20.852Z,73.70
2022-08-26T22:54:54.463Z,50.80
2022-08-26T22:57:28.633Z,52.30
2022-08-26T23:00:03.153Z,58.10
2022-08-26T23:02:37.344Z,48.10
2022-08-26T23:05:12.565Z,51.00
2022-08-26T23:07:46.740Z,54.20
2022-08-26T23:10:20.793Z,58.30
2022-08-26T23:12:55.983Z,63.40
2022-08-26T23:15:30.383Z,69.60
2022-08-26T23:18:05.069Z,56.40
2022-08-26T23:20:39.464Z,48.00
2022-08-26T23:23:13.523Z,55.70
2022-08-26T23:25:48.586Z,64.50
2022-08-26T23:28:23.123Z,46.60
2022-08-26T23:30:58.083Z,50.90
2022-08-26T23:33:53.122Z,47.00
2022-08-26T23:36:26.545Z,49.10
2022-08-26T23:38:59.586Z,51.30
2022-08-26T23:41:32.915Z,56.20
2022-08-26T23:44:06.648Z,52.80
2022-08-26T23:46:39.723Z,60.00
2022-08-26T23:49:13.020Z,43.70
2022-08-26T23:52:05.124Z,55.30
2022-08-26T23:59:43.748Z,54.50
